Time;durP1;ratioP1;P1;durP2;ratioP2;P2;SDS_P1;SDS_P2;PMS_P1;PMS_P2;Temp;Humidity;BMP_temperature;BMP_pressure;BME280_temperature;BME280_humidity;BME280_pressure;Samples;Min_cycle;Max_cycle;Signal;HPM_P1;HPM_P2
2023/10/24 00:02:16;;;;;;;;;;;;;;;18.20;64.92;99464.91;5014226;28;19951;-73
2023/10/24 00:04:42;;;;;;;;;;;;;;;18.12;65.44;99457.56;5014812;28;20388;-73
2023/10/24 00:07:07;;;;;;;;;;;;;;;18.01;65.27;99455.38;5015383;28;19913;-73
2023/10/24 00:09:32;;;;;;;;;;;;;;;17.97;65.31;99454.50;5033550;28;19921;-73
2023/10/24 00:11:57;;;;;;;;;;;;;;;17.95;65.28;99445.59;5014171;28;20411;-73
2023/10/24 00:14:23;;;;;;;;;;;;;;;17.90;65.43;99457.28;5012838;28;19913;-72
2023/10/24 00:16:48;;;;;;;;;;;;;;;17.77;65.70;99451.88;5014109;28;20003;-73
2023/10/24 00:19:13;;;;;;;;;;;;;;;17.47;66.96;99449.84;5012239;28;20012;-73
2023/10/24 00:21:39;;;;;;;;;;;;;;;17.36;67.55;99446.06;5022131;28;20013;-73
2023/10/24 00:24:04;;;;;;;;;;;;;;;17.60;66.77;99456.09;5033795;28;19913;-73
2023/10/24 00:26:29;;;;;;;;;;;;;;;17.86;66.17;99451.56;5025933;28;19924;-73
2023/10/24 00:28:55;;;;;;;;;;;;;;;17.92;65.55;99454.88;5027307;28;19917;-73
2023/10/24 00:31:20;;;;;;;;;;;;;;;17.95;65.31;99442.78;5013768;28;20417;-73
2023/10/24 00:33:45;;;;;;;;;;;;;;;17.93;65.43;99443.19;5024898;28;19917;-73
2023/10/24 00:36:11;;;;;;;;;;;;;;;17.92;65.56;99446.38;5033573;28;20404;-73
2023/10/24 00:38:36;;;;;;;;;;;;;;;17.59;66.26;99437.50;5032462;28;20016;-73
2023/10/24 00:41:01;;;;;;;;;;;;;;;17.35;67.07;99444.41;5030690;28;19917;-73
2023/10/24 00:43:27;;;;;;;;;;;;;;;16.94;69.05;99442.16;5012978;28;20320;-72
2023/10/24 00:45:52;;;;;;;;;;;;;;;16.74;70.19;99445.09;5025940;28;19917;-73
2023/10/24 00:48:18;;;;;;;;;;;;;;;16.72;70.76;99441.00;5033065;28;19928;-73
2023/10/24 00:50:43;;;;;;;;;;;;;;;16.76;70.91;99444.69;5031500;28;19917;-73
2023/10/24 00:53:08;;;;;;;;;;;;;;;16.58;71.27;99444.41;5031864;28;20319;-73
2023/10/24 00:55:36;;;;;;;;;;;;;;;16.55;71.29;99445.97;5031936;28;19913;-73
2023/10/24 00:58:01;;;;;;;;;;;;;;;16.44;72.02;99444.97;5032912;28;20491;-73
2023/10/24 01:00:27;;;;;;;;;;;;;;;16.68;71.11;99435.28;5021221;28;20016;-73
2023/10/24 01:02:53;;;;;;;;;;;;;;;16.73;70.94;99445.47;5013102;28;20318;-73
2023/10/24 01:05:18;;;;;;;;;;;;;;;16.74;70.54;99449.91;5013165;28;20311;-72
2023/10/24 01:07:45;;;;;;;;;;;;;;;16.64;70.89;99451.38;5013089;28;19918;-73
2023/10/24 01:10:10;;;;;;;;;;;;;;;16.86;69.91;99443.25;5013121;28;20343;-72
2023/10/24 01:12:36;;;;;;;;;;;;;;;16.86;69.76;99446.09;5013086;28;19920;-73
2023/10/24 01:15:01;;;;;;;;;;;;;;;16.90;69.63;99435.66;5012524;28;19913;-73
2023/10/24 01:17:26;;;;;;;;;;;;;;;17.01;69.69;99441.50;5013055;28;20319;-72
2023/10/24 01:19:51;;;;;;;;;;;;;;;16.84;70.33;99441.63;5012843;28;20016;-73
2023/10/24 01:22:17;;;;;;;;;;;;;;;16.49;71.40;99444.66;5011608;28;19988;-72
2023/10/24 01:24:42;;;;;;;;;;;;;;;16.24;72.73;99445.84;5012745;28;19920;-73
2023/10/24 01:27:08;;;;;;;;;;;;;;;16.14;73.42;99440.81;5011593;28;19953;-73
2023/10/24 01:29:33;;;;;;;;;;;;;;;16.39;71.71;99446.91;5015228;28;19913;-73
2023/10/24 01:31:58;;;;;;;;;;;;;;;16.48;71.59;99432.56;5025124;28;20303;-72
2023/10/24 01:34:23;;;;;;;;;;;;;;;16.49;71.39;99439.84;5015777;28;19917;-72
2023/10/24 01:36:49;;;;;;;;;;;;;;;16.48;71.08;99443.03;5031066;28;19921;-73
2023/10/24 01:39:14;;;;;;;;;;;;;;;16.52;71.10;99433.44;5026323;28;19924;-73
2023/10/24 01:41:42;;;;;;;;;;;;;;;16.34;71.71;99440.75;5012645;28;19921;-72
2023/10/24 01:44:07;;;;;;;;;;;;;;;16.44;71.38;99439.34;5012044;28;19939;-73
2023/10/24 01:46:32;;;;;;;;;;;;;;;16.67;70.99;99434.50;5020810;28;19917;-73
2023/10/24 01:48:58;;;;;;;;;;;;;;;16.58;71.25;99436.75;5017118;28;19930;-73
2023/10/24 01:51:23;;;;;;;;;;;;;;;16.45;71.22;99438.13;5012475;28;19921;-73
2023/10/24 01:53:48;;;;;;;;;;;;;;;16.20;72.06;99444.13;5011016;28;19997;-73
2023/10/24 01:56:14;;;;;;;;;;;;;;;16.34;71.27;99441.56;5026696;28;19921;-72
2023/10/24 01:58:39;;;;;;;;;;;;;;;16.14;71.34;99437.97;5012506;28;20019;-73
2023/10/24 02:01:05;;;;;;;;;;;;;;;15.80;73.06;99451.78;5026709;28;20352;-73
2023/10/24 02:03:30;;;;;;;;;;;;;;;15.58;73.59;99443.69;5012190;28;20424;-72
2023/10/24 02:05:56;;;;;;;;;;;;;;;15.49;74.10;99437.44;5012096;28;19921;-72
2023/10/24 02:08:21;;;;;;;;;;;;;;;15.28;75.74;99441.41;5021614;28;19917;-73
2023/10/24 02:10:46;;;;;;;;;;;;;;;14.92;76.72;99437.75;5031781;28;20349;-73
2023/10/24 02:13:12;;;;;;;;;;;;;;;14.88;77.59;99434.06;5031736;28;20412;-72
2023/10/24 02:15:37;;;;;;;;;;;;;;;14.78;78.55;99446.69;5027077;28;20052;-73
2023/10/24 02:18:02;;;;;;;;;;;;;;;14.86;78.12;99448.50;5026963;28;19917;-73
2023/10/24 02:20:28;;;;;;;;;;;;;;;14.57;78.80;99447.75;5011846;28;20022;-73
2023/10/24 02:22:53;;;;;;;;;;;;;;;15.03;77.95;99454.94;5012081;28;19917;-73
2023/10/24 02:25:18;;;;;;;;;;;;;;;15.35;77.05;99452.03;5010582;28;19984;-73
2023/10/24 02:27:43;;;;;;;;;;;;;;;15.54;75.45;99458.91;5010726;28;19914;-73
2023/10/24 02:30:09;;;;;;;;;;;;;;;15.72;74.72;99460.09;5023987;28;19917;-73
2023/10/24 02:32:34;;;;;;;;;;;;;;;15.61;74.30;99463.88;5031507;28;20392;-73
2023/10/24 02:34:59;;;;;;;;;;;;;;;15.77;73.51;99461.00;5030184;28;19967;-73
2023/10/24 02:37:25;;;;;;;;;;;;;;;15.80;73.06;99465.88;5028656;28;19964;-73
2023/10/24 02:39:50;;;;;;;;;;;;;;;15.34;74.54;99460.88;5030071;28;20376;-73
2023/10/24 02:42:15;;;;;;;;;;;;;;;15.01;76.52;99460.94;5030597;28;20016;-73
2023/10/24 02:44:40;;;;;;;;;;;;;;;15.06;76.21;99459.00;5018104;28;19924;-73
2023/10/24 02:47:06;;;;;;;;;;;;;;;15.33;75.61;99456.44;5026912;28;20312;-73
2023/10/24 02:49:32;;;;;;;;;;;;;;;15.35;75.81;99457.66;5011466;28;19928;-73
2023/10/24 02:51:57;;;;;;;;;;;;;;;15.61;75.56;99458.22;5011756;28;19914;-73
2023/10/24 02:54:23;;;;;;;;;;;;;;;15.61;75.52;99463.88;5009930;28;20460;-73
2023/10/24 02:56:49;;;;;;;;;;;;;;;15.85;74.15;99462.75;5010384;28;19968;-72
2023/10/24 02:59:14;;;;;;;;;;;;;;;15.96;73.60;99455.34;5011803;28;19932;-73
2023/10/24 03:01:39;;;;;;;;;;;;;;;15.91;73.00;99457.66;5010640;28;19960;-72
2023/10/24 03:04:04;;;;;;;;;;;;;;;15.91;73.17;99455.66;5011734;28;19967;-72
2023/10/24 03:06:30;;;;;;;;;;;;;;;16.03;73.05;99463.16;5032002;28;19943;-73
2023/10/24 03:08:55;;;;;;;;;;;;;;;16.08;72.63;99453.56;5034588;28;20406;-73
2023/10/24 03:11:22;;;;;;;;;;;;;;;16.09;72.12;99461.66;5034312;28;19913;-73
2023/10/24 03:13:47;;;;;;;;;;;;;;;15.82;72.13;99464.34;5035120;28;20319;-73
2023/10/24 03:16:12;;;;;;;;;;;;;;;15.76;72.63;99460.16;5030266;28;19917;-72
2023/10/24 03:18:38;;;;;;;;;;;;;;;15.80;72.54;99463.06;5015198;28;19917;-73
2023/10/24 03:21:03;;;;;;;;;;;;;;;15.28;75.21;99458.31;5028040;28;19918;-73
2023/10/24 03:23:28;;;;;;;;;;;;;;;15.11;76.74;99464.38;5032750;28;19959;-73
2023/10/24 03:25:54;;;;;;;;;;;;;;;14.71;78.92;99464.16;5033505;28;19913;-72
2023/10/24 03:28:19;;;;;;;;;;;;;;;14.94;78.30;99466.38;5021844;28;20376;-72
2023/10/24 03:30:44;;;;;;;;;;;;;;;14.90;79.01;99467.47;5014833;28;19975;-73
2023/10/24 03:33:10;;;;;;;;;;;;;;;15.02;78.16;99471.00;5013909;28;19918;-73
2023/10/24 03:35:35;;;;;;;;;;;;;;;15.13;78.31;99474.06;5030313;28;19917;-73
2023/10/24 03:38:01;;;;;;;;;;;;;;;15.10;78.01;99469.19;5034713;28;19955;-73
2023/10/24 03:40:26;;;;;;;;;;;;;;;14.97;77.48;99476.94;5034231;28;19917;-73
2023/10/24 03:42:52;;;;;;;;;;;;;;;15.07;78.20;99483.16;5034552;28;20392;-73
2023/10/24 03:45:17;;;;;;;;;;;;;;;14.98;77.71;99483.38;5019837;28;19917;-72
2023/10/24 03:47:43;;;;;;;;;;;;;;;15.16;77.38;99486.63;5028522;28;19917;-73
2023/10/24 03:50:08;;;;;;;;;;;;;;;15.26;76.48;99486.06;5032874;28;19951;-73
2023/10/24 03:52:34;;;;;;;;;;;;;;;15.12;76.98;99489.34;5032959;28;19917;-73
2023/10/24 03:54:59;;;;;;;;;;;;;;;14.71;79.13;99485.88;5032104;28;20231;-72
2023/10/24 03:57:24;;;;;;;;;;;;;;;14.81;79.40;99476.94;5013762;28;19917;-73
2023/10/24 03:59:50;;;;;;;;;;;;;;;15.08;78.46;99474.34;5018112;28;19980;-72
2023/10/24 04:02:15;;;;;;;;;;;;;;;14.36;81.31;99476.16;5030516;28;20028;-73
2023/10/24 04:04:40;;;;;;;;;;;;;;;14.54;81.48;99471.00;5023183;28;19922;-73
2023/10/24 04:07:06;;;;;;;;;;;;;;;14.79;80.21;99481.28;5020740;28;19917;-73
2023/10/24 04:09:31;;;;;;;;;;;;;;;15.08;79.30;99480.00;5034076;28;20378;-73
2023/10/24 04:11:56;;;;;;;;;;;;;;;15.25;78.06;99477.97;5033954;28;20367;-73
2023/10/24 04:14:22;;;;;;;;;;;;;;;15.01;77.63;99479.81;5033015;28;19917;-72
2023/10/24 04:16:47;;;;;;;;;;;;;;;14.97;76.40;99488.19;5032904;28;20386;-70
2023/10/24 04:19:12;;;;;;;;;;;;;;;14.89;75.78;99489.19;5013117;28;19945;-73
2023/10/24 04:21:38;;;;;;;;;;;;;;;14.95;75.78;99482.09;5012658;28;20396;-75
2023/10/24 04:24:03;;;;;;;;;;;;;;;14.16;78.45;99481.63;5018388;28;20003;-74
2023/10/24 04:26:28;;;;;;;;;;;;;;;14.04;79.70;99482.50;5013764;28;19967;-76
2023/10/24 04:28:55;;;;;;;;;;;;;;;14.13;79.66;99490.81;5014186;28;19921;-72
2023/10/24 04:31:20;;;;;;;;;;;;;;;13.88;80.93;99492.88;5016268;28;20430;-72
2023/10/24 04:33:46;;;;;;;;;;;;;;;13.57;82.27;99498.00;5017684;28;20007;-72
2023/10/24 04:36:11;;;;;;;;;;;;;;;13.70;82.46;99503.59;5013222;28;19975;-73
2023/10/24 04:38:37;;;;;;;;;;;;;;;13.89;81.78;99502.97;5027526;28;19924;-73
2023/10/24 04:41:02;;;;;;;;;;;;;;;13.71;82.78;99508.06;5019313;28;19917;-73
2023/10/24 04:43:27;;;;;;;;;;;;;;;13.59;84.29;99506.09;5040321;28;19921;-71
2023/10/24 04:45:52;;;;;;;;;;;;;;;13.51;84.54;99510.66;5022745;28;20415;-71
2023/10/24 04:48:18;;;;;;;;;;;;;;;13.81;82.99;99520.78;5028323;28;19978;-71
2023/10/24 04:50:43;;;;;;;;;;;;;;;13.81;82.68;99515.16;5019151;28;19917;-71
2023/10/24 04:53:08;;;;;;;;;;;;;;;13.73;83.30;99516.94;5027605;28;19928;-71
2023/10/24 04:55:33;;;;;;;;;;;;;;;13.53;85.37;99525.19;5024362;28;20014;-69
2023/10/24 04:57:59;;;;;;;;;;;;;;;13.68;84.72;99540.47;5030146;28;19923;-68
2023/10/24 05:00:24;;;;;;;;;;;;;;;14.01;83.24;99535.84;5019438;28;19926;-68
2023/10/24 05:02:50;;;;;;;;;;;;;;;13.97;82.56;99543.34;5023076;28;19968;-72
2023/10/24 05:05:16;;;;;;;;;;;;;;;13.62;84.83;99547.53;5013354;28;19924;-72
2023/10/24 05:07:41;;;;;;;;;;;;;;;13.19;86.29;99544.16;5013531;28;19917;-72
2023/10/24 05:10:06;;;;;;;;;;;;;;;13.21;86.28;99553.03;5012830;28;19921;-72
2023/10/24 05:12:32;;;;;;;;;;;;;;;13.01;88.09;99552.78;5011095;28;19973;-72
2023/10/24 05:14:57;;;;;;;;;;;;;;;13.21;86.78;99561.47;5021480;28;20402;-72
2023/10/24 05:17:22;;;;;;;;;;;;;;;13.05;88.04;99569.75;5011588;28;19949;-72
2023/10/24 05:19:48;;;;;;;;;;;;;;;13.09;88.59;99576.31;5012672;28;19927;-71
2023/10/24 05:22:16;;;;;;;;;;;;;;;13.09;88.98;99572.69;5012791;28;19913;-72
2023/10/24 05:24:41;;;;;;;;;;;;;;;13.24;88.62;99585.22;5027693;28;19971;-72
2023/10/24 05:27:06;;;;;;;;;;;;;;;13.28;88.19;99580.53;5012811;28;19914;-72
2023/10/24 05:29:35;;;;;;;;;;;;;;;13.44;87.37;99591.94;5011308;28;20419;-72
2023/10/24 05:32:00;;;;;;;;;;;;;;;13.51;86.49;99588.53;5030743;28;20031;-72
2023/10/24 05:34:26;;;;;;;;;;;;;;;13.62;85.69;99589.69;5031408;28;19913;-72
2023/10/24 05:36:51;;;;;;;;;;;;;;;13.55;85.79;99601.53;5031122;28;19920;-72
2023/10/24 05:39:18;;;;;;;;;;;;;;;13.43;85.85;99601.50;5028720;28;20311;-72
2023/10/24 05:41:43;;;;;;;;;;;;;;;13.42;86.31;99599.88;5019875;28;19945;-72
2023/10/24 05:44:08;;;;;;;;;;;;;;;13.68;85.24;99604.34;5015505;28;20406;-70
2023/10/24 05:46:33;;;;;;;;;;;;;;;13.80;84.62;99609.09;5013503;28;19921;-71
2023/10/24 05:48:59;;;;;;;;;;;;;;;13.96;83.79;99597.94;5015065;28;19925;-72
2023/10/24 05:51:26;;;;;;;;;;;;;;;14.04;83.67;99609.06;5019996;28;19968;-72
2023/10/24 05:53:51;;;;;;;;;;;;;;;13.91;84.40;99607.44;5024716;28;20322;-72
2023/10/24 05:56:17;;;;;;;;;;;;;;;14.02;85.06;99610.59;5021342;28;19917;-72
2023/10/24 05:58:42;;;;;;;;;;;;;;;14.20;84.04;99608.31;5021446;28;20435;-72
2023/10/24 06:01:07;;;;;;;;;;;;;;;14.54;83.04;99622.16;5022911;28;19924;-73
2023/10/24 06:03:33;;;;;;;;;;;;;;;14.52;83.06;99630.13;5013464;28;20408;-73
2023/10/24 06:05:58;;;;;;;;;;;;;;;14.69;82.57;99621.38;5018371;28;20331;-74
2023/10/24 06:08:23;;;;;;;;;;;;;;;14.52;82.95;99625.31;5024103;28;20383;-73
2023/10/24 06:10:59;;;;;;;;;;;;;;;14.60;82.91;99623.53;5021994;28;19918;-72
2023/10/24 06:13:24;;;;;;;;;;;;;;;14.66;82.55;99622.09;5023959;28;19932;-73
2023/10/24 06:15:50;;;;;;;;;;;;;;;14.77;82.59;99624.41;5019599;28;20012;-74
2023/10/24 06:18:15;;;;;;;;;;;;;;;14.96;81.47;99620.91;5017446;28;19975;-73
2023/10/24 06:20:40;;;;;;;;;;;;;;;15.13;80.93;99617.72;5019341;28;20025;-73
2023/10/24 06:23:07;;;;;;;;;;;;;;;15.29;80.42;99625.41;5019531;28;19932;-73
2023/10/24 06:25:39;;;;;;;;;;;;;;;15.46;79.71;99631.84;5026735;28;19917;-72
2023/10/24 06:28:04;;;;;;;;;;;;;;;15.66;79.31;99629.91;5025808;28;19913;-73
2023/10/24 06:30:30;;;;;;;;;;;;;;;15.92;78.45;99628.53;5024486;28;19928;-73
2023/10/24 06:32:56;;;;;;;;;;;;;;;16.20;76.63;99628.34;5025997;28;19927;-73
2023/10/24 06:35:21;;;;;;;;;;;;;;;16.49;76.20;99628.97;5019795;28;20289;-73
2023/10/24 06:37:46;;;;;;;;;;;;;;;16.66;74.62;99632.53;5024470;28;19921;-71
2023/10/24 06:40:13;;;;;;;;;;;;;;;16.78;73.25;99617.44;5015482;28;19948;-72
2023/10/24 06:42:38;;;;;;;;;;;;;;;16.92;72.99;99614.06;5016727;28;19968;-71
2023/10/24 06:45:04;;;;;;;;;;;;;;;17.12;71.80;99609.19;5015386;28;19913;-73
2023/10/24 06:47:30;;;;;;;;;;;;;;;17.18;71.12;99607.69;5014374;28;20458;-73
2023/10/24 06:49:55;;;;;;;;;;;;;;;17.30;70.40;99605.88;5013999;28;19984;-73
2023/10/24 06:52:21;;;;;;;;;;;;;;;17.47;70.14;99601.72;5020035;28;19924;-72
2023/10/24 06:54:46;;;;;;;;;;;;;;;17.71;69.72;99597.63;5014885;28;19921;-72
2023/10/24 06:57:11;;;;;;;;;;;;;;;17.68;69.70;99596.41;5015317;28;19921;-73
2023/10/24 06:59:37;;;;;;;;;;;;;;;18.00;68.23;99592.41;5019041;28;20518;-68
2023/10/24 07:02:02;;;;;;;;;;;;;;;18.23;66.97;99591.53;5034640;28;19913;-68
2023/10/24 07:04:28;;;;;;;;;;;;;;;18.44;66.97;99593.81;5029470;28;19913;-67
2023/10/24 07:06:53;;;;;;;;;;;;;;;18.54;66.41;99586.66;5021647;28;20011;-70
2023/10/24 07:09:19;;;;;;;;;;;;;;;18.59;65.50;99586.31;5033364;28;20023;-70
2023/10/24 07:11:44;;;;;;;;;;;;;;;18.76;65.94;99584.06;5033295;28;20307;-70
2023/10/24 07:14:09;;;;;;;;;;;;;;;19.03;65.65;99581.94;5033480;28;20414;-70
2023/10/24 07:16:35;;;;;;;;;;;;;;;19.10;63.79;99578.34;5033665;28;19913;-70
2023/10/24 07:19:00;;;;;;;;;;;;;;;19.26;63.62;99574.44;5034849;28;19913;-71
2023/10/24 07:21:25;;;;;;;;;;;;;;;19.47;63.61;99576.63;5031885;28;19917;-70
2023/10/24 07:23:51;;;;;;;;;;;;;;;19.66;62.91;99569.88;5034701;28;19935;-70
2023/10/24 07:26:16;;;;;;;;;;;;;;;19.78;62.91;99566.69;5034736;28;20356;-71
2023/10/24 07:28:41;;;;;;;;;;;;;;;20.04;62.71;99567.72;5032363;28;19939;-71
2023/10/24 07:31:06;;;;;;;;;;;;;;;20.03;60.97;99568.09;5021353;28;19976;-71
2023/10/24 07:33:32;;;;;;;;;;;;;;;20.15;59.22;99562.06;5025124;28;19917;-73
2023/10/24 07:36:06;;;;;;;;;;;;;;;20.16;57.29;99562.91;5034581;28;19949;-73
2023/10/24 07:38:32;;;;;;;;;;;;;;;20.35;56.97;99558.94;5017863;28;19921;-73
2023/10/24 07:40:57;;;;;;;;;;;;;;;20.59;56.17;99563.03;5013129;28;20389;-72
2023/10/24 07:43:23;;;;;;;;;;;;;;;20.71;55.02;99558.19;5020279;28;19930;-73
2023/10/24 07:45:49;;;;;;;;;;;;;;;20.87;55.04;99561.50;5031806;28;19921;-72
2023/10/24 07:48:14;;;;;;;;;;;;;;;21.09;53.38;99544.47;5029090;28;20304;-72
2023/10/24 07:50:47;;;;;;;;;;;;;;;21.02;53.00;99547.34;5033093;28;19913;-73
2023/10/24 07:53:12;;;;;;;;;;;;;;;21.08;53.40;99542.84;5027315;28;19996;-72
2023/10/24 07:55:38;;;;;;;;;;;;;;;21.17;52.63;99539.59;5013003;28;20493;-73
2023/10/24 07:58:04;;;;;;;;;;;;;;;21.02;51.95;99533.13;5020533;28;19921;-73
2023/10/24 08:00:29;;;;;;;;;;;;;;;21.21;52.60;99525.38;5032075;28;20012;-73
2023/10/24 08:02:54;;;;;;;;;;;;;;;21.42;52.52;99528.22;5022512;28;19917;-73
2023/10/24 08:05:20;;;;;;;;;;;;;;;21.59;51.57;99529.41;5019720;28;19948;-73
2023/10/24 08:07:45;;;;;;;;;;;;;;;21.80;50.19;99519.25;5016574;28;20007;-73
2023/10/24 08:10:10;;;;;;;;;;;;;;;21.81;50.05;99523.72;5021696;28;19914;-73
2023/10/24 08:12:36;;;;;;;;;;;;;;;21.89;49.90;99524.50;5016351;28;20307;-73
2023/10/24 08:15:01;;;;;;;;;;;;;;;21.98;49.95;99519.19;5024798;28;20016;-73
2023/10/24 08:17:26;;;;;;;;;;;;;;;21.75;49.72;99505.41;5020333;28;19914;-73
2023/10/24 08:19:51;;;;;;;;;;;;;;;21.98;49.57;99504.13;5012208;28;19924;-73
2023/10/24 08:22:17;;;;;;;;;;;;;;;22.26;48.88;99506.03;5027470;28;20311;-73
2023/10/24 08:24:42;;;;;;;;;;;;;;;22.48;48.67;99502.25;5033246;28;19917;-74
2023/10/24 08:27:07;;;;;;;;;;;;;;;22.65;48.38;99506.25;5015456;28;19917;-73
2023/10/24 08:29:33;;;;;;;;;;;;;;;22.83;47.45;99504.09;5012032;28;19948;-70
2023/10/24 08:31:58;;;;;;;;;;;;;;;22.62;46.93;99498.53;5013726;28;19991;-70
2023/10/24 08:34:23;;;;;;;;;;;;;;;22.79;47.09;99503.28;5012519;28;19925;-70
2023/10/24 08:36:49;;;;;;;;;;;;;;;22.98;45.89;99503.97;5023592;28;19924;-70
2023/10/24 08:39:14;;;;;;;;;;;;;;;22.71;46.78;99496.03;5031687;28;19921;-70
2023/10/24 08:41:40;;;;;;;;;;;;;;;22.96;46.75;99492.19;5031944;28;19917;-70
2023/10/24 08:44:05;;;;;;;;;;;;;;;22.75;45.81;99501.72;5031856;28;19914;-73
2023/10/24 08:46:31;;;;;;;;;;;;;;;22.39;46.79;99488.47;5033087;28;20319;-73
2023/10/24 08:48:58;;;;;;;;;;;;;;;22.46;46.19;99501.88;5031605;28;19925;-73
2023/10/24 08:51:23;;;;;;;;;;;;;;;22.58;46.40;99499.38;5023075;28;19997;-73
2023/10/24 08:53:48;;;;;;;;;;;;;;;22.78;46.20;99501.69;5011573;28;19930;-73
2023/10/24 08:56:14;;;;;;;;;;;;;;;22.88;45.32;99499.16;5015486;28;19960;-70
2023/10/24 08:58:41;;;;;;;;;;;;;;;23.25;44.86;99500.50;5027467;28;20015;-73
2023/10/24 09:01:07;;;;;;;;;;;;;;;23.50;44.60;99500.28;5019205;28;20400;-73
2023/10/24 09:03:32;;;;;;;;;;;;;;;23.59;43.48;99496.94;5016576;28;19917;-73
2023/10/24 09:05:58;;;;;;;;;;;;;;;23.39;43.18;99494.66;5015962;28;19925;-73
2023/10/24 09:08:24;;;;;;;;;;;;;;;23.48;43.06;99485.63;5015637;28;19917;-70
2023/10/24 09:10:50;;;;;;;;;;;;;;;23.78;42.99;99480.44;5012517;28;19928;-77
2023/10/24 09:13:15;;;;;;;;;;;;;;;23.92;42.28;99470.84;5023102;28;20376;-74
2023/10/24 09:15:40;;;;;;;;;;;;;;;24.06;42.14;99487.03;5027643;28;19979;-73
2023/10/24 09:18:06;;;;;;;;;;;;;;;24.26;41.36;99481.47;5012043;28;19973;-76
2023/10/24 09:20:32;;;;;;;;;;;;;;;23.81;42.20;99471.78;5009768;28;19991;-73
2023/10/24 09:23:02;;;;;;;;;;;;;;;24.16;41.02;99474.66;5010509;28;19925;-75
2023/10/24 09:25:28;;;;;;;;;;;;;;;24.03;40.06;99470.72;5008853;28;19963;-73
2023/10/24 09:27:54;;;;;;;;;;;;;;;24.38;40.21;99457.22;5040076;28;20416;-72
2023/10/24 09:30:20;;;;;;;;;;;;;;;24.63;39.60;99464.63;5022190;28;19921;-77
2023/10/24 09:32:46;;;;;;;;;;;;;;;24.65;38.52;99457.22;5013597;28;19917;-74
2023/10/24 09:35:11;;;;;;;;;;;;;;;24.71;39.81;99453.88;5023692;28;19971;-73
2023/10/24 09:37:44;;;;;;;;;;;;;;;24.66;37.98;99452.31;5018706;28;19917;-74
2023/10/24 09:40:10;;;;;;;;;;;;;;;24.87;37.64;99447.53;5013201;28;19932;-75
2023/10/24 09:42:36;;;;;;;;;;;;;;;24.95;37.52;99440.41;5024686;28;19918;-74
2023/10/24 09:45:04;;;;;;;;;;;;;;;25.23;36.50;99432.59;5025885;28;19920;-76
2023/10/24 09:47:31;;;;;;;;;;;;;;;25.44;35.96;99427.69;5012468;28;19926;-74
2023/10/24 09:49:59;;;;;;;;;;;;;;;25.40;36.14;99424.09;5015053;28;19961;-76
2023/10/24 09:52:25;;;;;;;;;;;;;;;25.31;34.92;99416.88;5023023;28;20385;-82
2023/10/24 09:54:52;;;;;;;;;;;;;;;25.17;34.94;99417.16;5017820;28;20454;-74
2023/10/24 09:57:18;;;;;;;;;;;;;;;25.17;35.22;99409.38;5012652;28;19945;-76
2023/10/24 09:59:59;;;;;;;;;;;;;;;25.47;34.61;99407.56;4985167;28;20159;-73
2023/10/24 10:02:25;;;;;;;;;;;;;;;25.55;35.07;99393.16;5019867;28;20031;-76
2023/10/24 10:04:51;;;;;;;;;;;;;;;25.57;33.43;99399.25;5022396;28;20447;-76
2023/10/24 10:07:17;;;;;;;;;;;;;;;25.29;33.87;99401.41;5025261;28;19917;-75
2023/10/24 10:09:46;;;;;;;;;;;;;;;25.43;34.50;99391.72;5015730;28;19921;-74
2023/10/24 10:12:12;;;;;;;;;;;;;;;25.55;33.93;99393.94;5011463;28;19918;-73
2023/10/24 10:14:58;;;;;;;;;;;;;;;25.77;34.83;99384.91;5029852;28;19913;-71
2023/10/24 10:17:26;;;;;;;;;;;;;;;25.95;35.24;99383.72;5022880;28;19924;-70
2023/10/24 10:20:10;;;;;;;;;;;;;;;26.06;34.23;99387.13;5024839;28;20380;-70
2023/10/24 10:22:36;;;;;;;;;;;;;;;25.83;33.38;99385.22;5020455;28;20024;-73
2023/10/24 10:25:19;;;;;;;;;;;;;;;25.42;33.29;99388.06;5025316;28;20007;-74
2023/10/24 10:27:53;;;;;;;;;;;;;;;25.55;34.72;99379.63;5016197;28;19956;-73
2023/10/24 10:30:38;;;;;;;;;;;;;;;25.79;32.80;99376.69;5022362;28;20375;-74
2023/10/24 10:33:09;;;;;;;;;;;;;;;25.88;33.90;99379.75;5019054;28;19939;-74
2023/10/24 10:35:53;;;;;;;;;;;;;;;26.12;34.13;99370.22;5016275;28;19940;-73
2023/10/24 10:38:34;;;;;;;;;;;;;;;25.92;33.96;99371.09;5017469;28;19975;-73
2023/10/24 10:41:19;;;;;;;;;;;;;;;25.54;33.15;99363.72;5027778;28;19920;-74
2023/10/24 10:43:44;;;;;;;;;;;;;;;25.47;33.25;99358.13;5028003;28;19971;-73
2023/10/24 10:46:16;;;;;;;;;;;;;;;25.72;33.20;99351.88;5014216;28;19925;-73
2023/10/24 10:48:42;;;;;;;;;;;;;;;25.42;33.41;99353.72;5015912;28;19972;-73
2023/10/24 10:51:08;;;;;;;;;;;;;;;25.69;34.20;99349.91;5021356;28;19954;-74
2023/10/24 10:53:48;;;;;;;;;;;;;;;25.90;33.49;99347.81;5026542;28;19917;-73
2023/10/24 10:56:22;;;;;;;;;;;;;;;26.11;33.31;99346.50;5031076;28;20000;-74
2023/10/24 10:59:06;;;;;;;;;;;;;;;26.23;33.24;99345.03;5013040;28;20316;-74
2023/10/24 11:02:10;;;;;;;;;;;;;;;25.84;33.13;99338.94;5018276;28;19921;-74
2023/10/24 11:04:35;;;;;;;;;;;;;;;26.18;34.03;99329.16;4989403;28;19914;-73
2023/10/24 11:07:02;;;;;;;;;;;;;;;25.99;32.51;99335.75;4968784;28;19933;-74
2023/10/24 11:09:32;;;;;;;;;;;;;;;26.41;33.95;99333.13;4999440;28;19925;-74
2023/10/24 11:12:16;;;;;;;;;;;;;;;26.66;33.95;99328.78;5023897;28;20298;-74
2023/10/24 11:14:41;;;;;;;;;;;;;;;26.78;32.58;99328.06;5023451;28;20458;-74
2023/10/24 11:17:08;;;;;;;;;;;;;;;26.87;32.24;99323.78;5024036;28;19918;-74
2023/10/24 11:19:34;;;;;;;;;;;;;;;26.93;32.44;99319.13;5029208;28;19969;-74
2023/10/24 11:21:59;;;;;;;;;;;;;;;27.02;31.66;99318.47;5029506;28;19984;-73
2023/10/24 11:24:24;;;;;;;;;;;;;;;26.74;31.64;99317.97;5025957;28;20297;-73
2023/10/24 11:26:56;;;;;;;;;;;;;;;26.93;32.63;99312.56;5021694;28;19928;-74
2023/10/24 11:29:22;;;;;;;;;;;;;;;26.94;32.73;99309.25;5025209;28;19917;-74
2023/10/24 11:31:47;;;;;;;;;;;;;;;26.91;32.48;99307.31;5025241;28;20398;-73
2023/10/24 11:34:13;;;;;;;;;;;;;;;26.90;31.76;99302.78;5029863;28;20526;-74
2023/10/24 11:36:42;;;;;;;;;;;;;;;27.03;32.13;99300.00;5015085;28;19913;-74
2023/10/24 11:39:08;;;;;;;;;;;;;;;26.86;32.36;99293.47;5029940;28;19913;-74
2023/10/24 11:41:33;;;;;;;;;;;;;;;27.09;32.05;99292.44;5026850;28;19932;-73
2023/10/24 11:43:58;;;;;;;;;;;;;;;27.13;32.04;99293.13;5028949;28;19921;-74
2023/10/24 11:46:24;;;;;;;;;;;;;;;27.07;32.28;99294.16;5026964;28;20015;-72
2023/10/24 11:48:49;;;;;;;;;;;;;;;26.99;32.12;99297.22;5031904;28;20387;-74
2023/10/24 11:51:15;;;;;;;;;;;;;;;27.02;32.44;99284.81;5029909;28;19917;-73
2023/10/24 11:53:40;;;;;;;;;;;;;;;27.04;32.12;99290.13;5024703;28;19928;-72
2023/10/24 11:56:06;;;;;;;;;;;;;;;26.93;31.83;99275.28;5018225;28;20596;-74
2023/10/24 11:58:32;;;;;;;;;;;;;;;27.14;31.42;99270.97;5023244;28;20395;-74
2023/10/24 12:00:58;;;;;;;;;;;;;;;27.14;31.50;99273.84;5025839;28;19976;-75
2023/10/24 12:03:24;;;;;;;;;;;;;;;27.16;31.45;99279.97;5018781;28;19921;-75
2023/10/24 12:05:54;;;;;;;;;;;;;;;27.10;31.20;99267.41;5026593;28;19932;-75
2023/10/24 12:08:24;;;;;;;;;;;;;;;27.14;31.09;99271.78;5015703;28;19929;-75
2023/10/24 12:10:54;;;;;;;;;;;;;;;26.95;31.87;99259.22;5023033;28;19925;-74
2023/10/24 12:13:20;;;;;;;;;;;;;;;27.19;31.18;99261.81;5018964;28;19931;-77
2023/10/24 12:15:46;;;;;;;;;;;;;;;27.33;32.02;99263.44;5026012;28;19944;-76
2023/10/24 12:18:12;;;;;;;;;;;;;;;27.23;30.98;99253.09;5021576;28;20400;-75
2023/10/24 12:20:37;;;;;;;;;;;;;;;27.37;31.06;99254.72;5028775;28;19921;-75
2023/10/24 12:23:02;;;;;;;;;;;;;;;27.28;31.03;99250.47;5025696;28;19917;-75
2023/10/24 12:25:28;;;;;;;;;;;;;;;27.20;31.53;99260.56;5018409;28;19921;-73
2023/10/24 12:27:53;;;;;;;;;;;;;;;27.05;31.58;99249.50;5022748;28;19990;-73
2023/10/24 12:30:19;;;;;;;;;;;;;;;27.07;31.42;99243.28;5019744;28;20016;-73
2023/10/24 12:32:45;;;;;;;;;;;;;;;27.20;31.76;99246.22;5026441;28;20016;-74
2023/10/24 12:35:10;;;;;;;;;;;;;;;27.17;31.56;99241.38;5019489;28;21251;-75
2023/10/24 12:37:36;;;;;;;;;;;;;;;27.15;31.26;99238.13;5021884;28;19921;-74
2023/10/24 12:40:04;;;;;;;;;;;;;;;27.28;31.34;99236.13;5024101;28;19921;-72
2023/10/24 12:42:29;;;;;;;;;;;;;;;27.14;31.67;99228.75;5027544;28;20588;-71
2023/10/24 12:44:54;;;;;;;;;;;;;;;27.12;31.45;99234.13;5028459;28;19928;-71